Time;durP1;ratioP1;P1;durP2;ratioP2;P2;SDS_P1;SDS_P2;PMS_P1;PMS_P2;Temp;Humidity;BMP_temperature;BMP_pressure;BME280_temperature;BME280_humidity;BME280_pressure;Samples;Min_cycle;Max_cycle;Signal;HPM_P1;HPM_P2
2022/05/17 00:00:18;;;;;;;;;0.25;0.25;;;;;24.00;42.54;101427.63;5037203;28;45655;-60
2022/05/17 00:02:43;;;;;;;;;5.00;5.00;;;;;24.00;42.74;101427.63;5037252;28;45273;-61
2022/05/17 00:05:09;;;;;;;;;5.00;5.00;;;;;23.99;42.78;101431.22;5019509;28;45334;-61
2022/05/17 00:07:34;;;;;;;;;4.25;4.25;;;;;23.98;42.96;101421.56;5037391;28;45462;-61
2022/05/17 00:09:59;;;;;;;;;5.00;5.00;;;;;23.96;42.91;101424.31;5037184;28;45346;-61
2022/05/17 00:12:25;;;;;;;;;5.00;5.00;;;;;23.97;42.65;101423.38;5036976;28;54467;-61
2022/05/17 00:14:50;;;;;;;;;5.00;5.00;;;;;23.96;42.51;101421.66;5037339;28;45257;-61
2022/05/17 00:17:15;;;;;;;;;4.00;4.00;;;;;23.97;42.79;101419.84;5037238;28;45234;-61
2022/05/17 00:19:41;;;;;;;;;5.00;5.00;;;;;23.98;42.65;101418.91;5019120;28;45407;-61
2022/05/17 00:22:08;;;;;;;;;6.00;5.00;;;;;23.97;43.05;101418.06;5036865;28;45431;-61
2022/05/17 00:24:33;;;;;;;;;5.25;5.25;;;;;23.97;42.52;101423.38;5037049;28;45352;-61
2022/05/17 00:26:59;;;;;;;;;5.25;5.00;;;;;23.98;42.91;101421.56;5037528;28;45597;-61
2022/05/17 00:29:24;;;;;;;;;6.00;4.25;;;;;23.97;43.08;101415.44;5036727;28;46147;-61
2022/05/17 00:31:50;;;;;;;;;5.25;4.50;;;;;23.97;43.11;101414.56;5034775;28;45660;-61
2022/05/17 00:34:15;;;;;;;;;5.00;5.00;;;;;23.97;43.04;101410.13;5019040;28;45331;-61
2022/05/17 00:36:41;;;;;;;;;5.00;5.00;;;;;23.97;42.68;101412.78;5036958;28;45336;-61
2022/05/17 00:39:07;;;;;;;;;5.75;5.75;;;;;23.96;43.06;101413.72;5036624;28;45773;-60
2022/05/17 00:41:32;;;;;;;;;6.00;5.50;;;;;23.95;43.39;101414.66;5036731;28;45871;-62
2022/05/17 00:46:56;;;;;;;;;4.00;4.00;;;;;23.96;43.35;101412.84;5022019;28;45296;-62
2022/05/17 00:49:32;;;;;;;;;4.75;4.75;;;;;23.95;42.86;101409.38;5035349;28;48411;-61
2022/05/17 00:52:01;;;;;;;;;6.00;5.00;;;;;23.95;43.45;101412.00;5036848;28;45784;-61
2022/05/17 00:54:29;;;;;;;;;4.25;4.25;;;;;23.94;42.91;101405.81;5036833;28;45293;-61
2022/05/17 00:57:33;;;;;;;;;4.00;4.00;;;;;23.95;43.13;101404.06;5035593;28;45256;-61
2022/05/17 01:00:03;;;;;;;;;8.25;5.25;;;;;23.94;43.46;101405.81;5032512;28;45448;-61
2022/05/17 01:02:31;;;;;;;;;4.75;4.75;;;;;23.92;43.37;101404.22;5036730;28;45865;-61
2022/05/17 01:04:58;;;;;;;;;6.00;4.50;;;;;23.95;42.96;101409.38;5036758;28;45458;-61
2022/05/17 01:07:28;;;;;;;;;5.50;4.25;;;;;23.95;43.48;101404.06;5036697;28;45583;-60
2022/05/17 01:09:53;;;;;;;;;5.50;5.00;;;;;23.94;43.01;101407.63;5035227;28;45427;-61
2022/05/17 01:12:19;;;;;;;;;6.75;5.00;;;;;23.92;43.01;101399.75;5036261;28;45339;-61
2022/05/17 01:15:00;;;;;;;;;5.75;4.50;;;;;23.94;42.97;101402.34;5036355;28;45339;-61
2022/05/17 01:17:28;;;;;;;;;7.00;5.25;;;;;23.93;43.54;101398.81;5036600;28;45420;-61
2022/05/17 01:19:54;;;;;;;;;5.00;5.00;;;;;23.93;43.23;101395.34;5036216;28;46447;-61
2022/05/17 01:22:19;;;;;;;;;5.25;5.25;;;;;23.93;43.61;101397.97;5036153;28;45300;-61
2022/05/17 01:24:45;;;;;;;;;6.00;6.00;;;;;23.91;43.66;101394.56;5036188;28;45244;-61
2022/05/17 01:27:17;;;;;;;;;6.00;5.00;;;;;23.92;43.47;101404.22;5036460;28;45428;-61
2022/05/17 01:29:44;;;;;;;;;6.25;5.25;;;;;23.91;43.47;101390.16;5035976;28;46369;-61
2022/05/17 01:32:11;;;;;;;;;4.00;4.00;;;;;23.89;43.61;101394.69;5034722;28;45981;-61
2022/05/17 01:34:37;;;;;;;;;4.00;4.00;;;;;23.90;43.98;101400.81;5034898;28;45256;-62
2022/05/17 01:37:04;;;;;;;;;5.25;4.75;;;;;23.90;43.31;101395.50;5036331;28;45221;-61
2022/05/17 01:39:30;;;;;;;;;4.25;3.50;;;;;23.89;43.78;101393.81;5036272;28;46299;-61
2022/05/17 01:41:55;;;;;;;;;5.00;5.00;;;;;23.90;43.77;101400.81;5035778;28;45363;-61
2022/05/17 01:44:20;;;;;;;;;5.00;5.00;;;;;23.89;43.34;101393.81;5038829;28;45243;-61
2022/05/17 01:46:46;;;;;;;;;4.25;4.25;;;;;23.87;43.29;101385.09;5038550;28;45252;-61
2022/05/17 01:49:11;;;;;;;;;7.50;4.75;;;;;23.90;43.34;101395.50;5039415;28;46753;-60
2022/05/17 01:51:36;;;;;;;;;4.25;4.25;;;;;23.90;43.44;101384.94;5039185;28;45415;-61
2022/05/17 01:54:02;;;;;;;;;8.00;4.25;;;;;23.89;43.91;101391.16;5039820;28;45293;-61
2022/05/17 01:56:27;;;;;;;;;5.00;5.00;;;;;23.89;43.44;101394.69;5039590;28;45595;-61
2022/05/17 01:58:53;;;;;;;;;6.00;5.00;;;;;23.87;43.84;101385.09;5039159;28;47297;-61
2022/05/17 02:01:18;;;;;;;;;6.75;6.00;;;;;23.87;43.49;101390.41;5039101;28;45307;-61
2022/05/17 02:03:43;;;;;;;;;6.75;6.00;;;;;23.89;43.79;101391.16;5039319;28;45464;-61
2022/05/17 02:06:09;;;;;;;;;6.75;5.00;;;;;23.89;43.50;101405.25;5039312;28;45598;-61
2022/05/17 02:08:34;;;;;;;;;4.75;4.75;;;;;23.88;43.46;101419.44;5039185;28;46348;-61
2022/05/17 02:11:00;;;;;;;;;7.00;4.50;;;;;23.89;43.48;101409.69;5038961;28;45372;-61
2022/05/17 02:13:25;;;;;;;;;5.00;5.00;;;;;23.91;43.79;101410.47;5039027;28;45376;-61
2022/05/17 02:15:50;;;;;;;;;6.00;6.00;;;;;23.92;43.63;101417.47;5039249;28;45434;-61
2022/05/17 02:18:16;;;;;;;;;5.50;5.50;;;;;23.92;43.52;101414.81;5037574;28;48114;-61
2022/05/17 02:20:41;;;;;;;;;4.75;4.75;;;;;23.92;43.37;101420.09;5038826;28;45265;-61
2022/05/17 02:23:07;;;;;;;;;8.00;6.25;;;;;23.92;43.33;101413.00;5038886;28;45191;-61
2022/05/17 02:25:34;;;;;;;;;5.25;5.25;;;;;23.92;43.71;101409.50;5039314;28;45246;-61
2022/05/17 02:27:59;;;;;;;;;5.00;5.00;;;;;23.93;43.51;101432.41;5038804;28;45272;-61
2022/05/17 02:30:25;;;;;;;;;5.00;5.00;;;;;23.91;43.67;101418.41;5038653;28;45285;-60
2022/05/17 02:32:50;;;;;;;;;7.50;6.75;;;;;23.92;43.66;101413.00;5038835;28;45230;-61
2022/05/17 02:35:15;;;;;;;;;5.00;5.00;;;;;23.92;43.73;101412.16;5039009;28;45553;-61
2022/05/17 02:37:41;;;;;;;;;5.25;5.25;;;;;23.94;43.77;101423.50;5020593;28;45971;-64
2022/05/17 02:40:08;;;;;;;;;8.50;5.00;;;;;23.95;43.49;101419.97;5038917;28;45608;-61
2022/05/17 02:42:33;;;;;;;;;7.50;5.25;;;;;23.96;43.42;101415.50;5038956;28;45476;-61
2022/05/17 02:44:59;;;;;;;;;4.75;4.75;;;;;23.92;43.20;101418.28;5038857;28;45382;-61
2022/05/17 02:47:24;;;;;;;;;8.00;5.75;;;;;23.89;43.83;101420.28;5038398;28;46213;-61
2022/05/17 02:49:50;;;;;;;;;6.25;6.00;;;;;23.89;43.51;101425.56;5038228;28;45438;-60
2022/05/17 02:52:15;;;;;;;;;5.00;5.00;;;;;23.83;43.54;101416.22;5038494;28;45434;-61
2022/05/17 02:54:41;;;;;;;;;5.25;4.25;;;;;23.80;43.44;101416.41;5038333;28;45523;-60
2022/05/17 02:57:07;;;;;;;;;5.00;5.00;;;;;23.78;43.42;101413.84;5020768;28;46866;-60
2022/05/17 02:59:33;;;;;;;;;6.00;6.00;;;;;23.75;43.35;101414.06;5038386;28;45660;-60
2022/05/17 03:02:01;;;;;;;;;7.00;7.00;;;;;23.73;43.33;101415.06;5038395;28;45248;-60
2022/05/17 03:04:27;;;;;;;;;4.25;4.25;;;;;23.69;43.17;101413.56;5038614;28;45352;-60
2022/05/17 03:06:54;;;;;;;;;7.00;6.00;;;;;23.68;43.55;101417.97;5038234;28;45288;-60
2022/05/17 03:09:19;;;;;;;;;4.00;4.00;;;;;23.68;43.34;101406.56;5038437;28;45363;-61
2022/05/17 03:11:45;;;;;;;;;9.25;5.75;;;;;23.66;43.65;101408.44;5038456;28;45546;-61
2022/05/17 03:14:12;;;;;;;;;5.00;5.00;;;;;23.63;43.88;101409.50;5038647;28;45387;-60
2022/05/17 03:16:38;;;;;;;;;6.00;6.00;;;;;23.62;43.40;101410.44;5038404;28;45578;-61
2022/05/17 03:19:04;;;;;;;;;5.50;4.50;;;;;23.58;43.87;101406.25;5037966;28;45257;-61
2022/05/17 03:21:29;;;;;;;;;6.50;5.00;;;;;23.56;43.43;101411.66;5038131;28;45467;-60
2022/05/17 03:23:55;;;;;;;;;4.75;4.75;;;;;23.55;43.80;101412.59;5038273;28;45449;-61
2022/05/17 03:26:21;;;;;;;;;6.00;6.00;;;;;23.54;43.95;101407.38;5020271;28;47600;-60
2022/05/17 03:28:46;;;;;;;;;4.25;4.25;;;;;23.53;43.84;101410.97;5037939;28;45669;-61
2022/05/17 03:31:13;;;;;;;;;6.00;5.00;;;;;23.50;43.72;101408.50;5037834;28;45434;-61
2022/05/17 03:33:38;;;;;;;;;5.25;3.75;;;;;23.49;43.67;101417.38;5038419;28;45594;-61
2022/05/17 03:36:04;;;;;;;;;5.25;5.00;;;;;23.46;43.89;101408.69;5037663;28;46312;-61
2022/05/17 03:38:30;;;;;;;;;7.25;6.25;;;;;23.42;44.09;101407.19;5037715;28;45430;-61
2022/05/17 03:40:58;;;;;;;;;6.00;5.00;;;;;23.39;44.12;101402.06;5037731;28;45454;-61
2022/05/17 03:43:24;;;;;;;;;6.50;5.00;;;;;23.39;44.29;101411.78;5037949;28;45246;-61
2022/05/17 03:45:49;;;;;;;;;6.25;6.00;;;;;23.35;43.90;101397.88;5037646;28;46383;-61
2022/05/17 03:48:15;;;;;;;;;7.00;7.00;;;;;23.33;44.22;101398.91;5037535;28;45404;-61
2022/05/17 03:50:40;;;;;;;;;6.00;5.00;;;;;23.34;44.30;101403.25;5037868;28;45274;-60
2022/05/17 03:53:05;;;;;;;;;7.00;5.50;;;;;23.32;44.13;101408.63;5037923;28;45427;-60
2022/05/17 03:55:31;;;;;;;;;8.75;6.00;;;;;23.29;44.21;101406.19;5037480;28;46262;-60
2022/05/17 03:57:57;;;;;;;;;7.00;6.00;;;;;23.32;44.36;101405.97;5037380;28;45452;-60
2022/05/17 04:00:22;;;;;;;;;6.50;6.50;;;;;23.30;44.30;101400.78;5037618;28;45297;-60
2022/05/17 04:02:49;;;;;;;;;4.00;4.00;;;;;23.32;44.03;101413.91;5037627;28;45392;-60
2022/05/17 04:05:16;;;;;;;;;6.50;6.00;;;;;23.31;44.18;101409.59;5036670;28;45365;-60
2022/05/17 04:07:41;;;;;;;;;8.25;6.75;;;;;23.29;44.18;101411.47;5037353;28;45851;-60
2022/05/17 04:10:10;;;;;;;;;8.75;6.75;;;;;23.27;44.26;101414.19;5037393;28;45248;-60
2022/05/17 04:12:35;;;;;;;;;6.25;6.25;;;;;23.24;44.41;101414.38;5037603;28;45534;-60
2022/05/17 04:15:02;;;;;;;;;6.75;6.00;;;;;23.22;44.50;101410.97;5038784;28;46287;-60
2022/05/17 04:17:27;;;;;;;;;5.00;5.00;;;;;23.20;44.80;101407.56;5037193;28;45889;-61
2022/05/17 04:19:52;;;;;;;;;8.00;7.00;;;;;23.24;44.32;101413.50;5037215;28;45403;-61
2022/05/17 04:22:18;;;;;;;;;8.00;7.25;;;;;23.22;45.06;101420.69;5037270;28;45407;-60
2022/05/17 04:24:43;;;;;;;;;9.25;8.00;;;;;23.20;44.55;101412.00;5036963;28;45488;-61
2022/05/17 04:27:10;;;;;;;;;6.50;6.50;;;;;23.20;45.11;101406.72;5037382;28;45329;-61
2022/05/17 04:29:37;;;;;;;;;8.50;5.25;;;;;23.20;44.79;101412.84;5037006;28;45301;-61
2022/05/17 04:32:03;;;;;;;;;6.25;6.25;;;;;23.19;45.13;101410.28;5036929;28;45225;-61
2022/05/17 04:34:29;;;;;;;;;8.25;5.50;;;;;23.20;44.87;101419.94;5036730;28;45384;-61
2022/05/17 04:36:54;;;;;;;;;11.75;7.25;;;;;23.20;44.90;101417.31;5036367;28;55803;-61
2022/05/17 04:39:20;;;;;;;;;8.00;8.00;;;;;23.22;44.79;101420.69;5019055;28;45327;-61
2022/05/17 04:41:46;;;;;;;;;7.25;5.75;;;;;23.24;45.00;101424.09;5036970;28;45562;-61
2022/05/17 04:44:11;;;;;;;;;7.50;6.50;;;;;23.25;45.03;101425.81;5037048;28;46141;-61
2022/05/17 04:46:37;;;;;;;;;7.50;7.00;;;;;23.25;44.90;101428.44;5036417;28;45373;-61
2022/05/17 04:49:02;;;;;;;;;7.75;6.25;;;;;23.25;45.11;101431.97;5018936;28;45328;-61
2022/05/17 04:51:28;;;;;;;;;7.50;7.50;;;;;23.24;45.07;101424.97;5036875;28;45533;-61
2022/05/17 04:53:53;;;;;;;;;6.50;5.25;;;;;23.24;45.03;101429.38;5036523;28;46136;-61
2022/05/17 04:56:19;;;;;;;;;9.00;6.25;;;;;23.24;45.45;101435.53;5036578;28;45439;-61
2022/05/17 04:58:44;;;;;;;;;7.50;7.00;;;;;23.24;45.59;101435.53;5036755;28;45281;-61
2022/05/17 05:01:10;;;;;;;;;7.50;7.50;;;;;23.22;45.56;101433.91;5036910;28;45392;-61
2022/05/17 05:03:36;;;;;;;;;7.00;7.00;;;;;23.24;45.26;101432.91;5036226;28;46184;-60
2022/05/17 05:06:01;;;;;;;;;7.00;7.00;;;;;23.25;45.24;101431.09;5036327;28;45249;-60
2022/05/17 05:08:26;;;;;;;;;7.75;7.75;;;;;23.25;45.13;101437.25;5036485;28;45335;-60
2022/05/17 05:10:52;;;;;;;;;9.00;7.00;;;;;23.25;45.52;101444.31;5036659;28;45598;-61
2022/05/17 05:13:19;;;;;;;;;9.00;7.25;;;;;23.24;45.54;101445.25;5018170;28;47273;-61
2022/05/17 05:15:45;;;;;;;;;7.50;7.50;;;;;23.21;45.40;101445.41;5036552;28;45849;-61
2022/05/17 05:18:10;;;;;;;;;7.00;7.00;;;;;23.22;45.45;101441.84;5036447;28;45738;-61
2022/05/17 05:20:37;;;;;;;;;8.75;7.00;;;;;23.21;46.09;101456.00;5036339;28;45733;-61
2022/05/17 05:23:03;;;;;;;;;8.50;6.25;;;;;23.22;45.82;101457.69;5036043;28;47137;-60
2022/05/17 05:25:28;;;;;;;;;8.25;8.00;;;;;23.21;45.59;101461.28;5035990;28;45464;-61
2022/05/17 05:27:54;;;;;;;;;9.25;7.25;;;;;23.22;45.43;101460.34;5036184;28;45404;-61
2022/05/17 05:30:20;;;;;;;;;11.00;8.50;;;;;23.22;45.92;101461.22;5034760;28;45391;-61
2022/05/17 05:32:49;;;;;;;;;7.75;7.75;;;;;23.22;45.84;101468.28;5036231;28;46775;-61
2022/05/17 05:35:20;;;;;;;;;10.50;7.25;;;;;23.20;45.78;101464.91;5036423;28;45226;-61
2022/05/17 05:37:46;;;;;;;;;9.75;6.00;;;;;23.22;46.16;101455.94;5036364;28;45419;-60
2022/05/17 05:40:12;;;;;;;;;7.25;7.25;;;;;23.20;46.10;101459.59;5036636;28;45443;-60
2022/05/17 05:42:39;;;;;;;;;8.50;8.50;;;;;23.20;45.86;101468.38;5035864;28;46475;-60
2022/05/17 05:45:06;;;;;;;;;9.00;8.50;;;;;23.21;46.18;101469.22;5035793;28;45877;-61
2022/05/17 05:47:32;;;;;;;;;7.75;7.00;;;;;23.20;45.88;101472.84;5036031;28;45453;-60
2022/05/17 05:49:57;;;;;;;;;12.25;10.00;;;;;23.20;46.11;101472.84;5036046;28;45446;-61
2022/05/17 05:52:23;;;;;;;;;9.00;9.00;;;;;23.21;45.93;101474.50;5001324;28;48309;-61
2022/05/17 05:54:48;;;;;;;;;9.50;9.00;;;;;23.20;46.06;101470.19;5035686;28;45401;-61
2022/05/17 05:57:14;;;;;;;;;9.75;8.50;;;;;23.22;46.23;101473.56;5036067;28;45324;-61
2022/05/17 05:59:40;;;;;;;;;10.50;8.75;;;;;23.22;45.86;101476.22;5035886;28;45284;-60
2022/05/17 06:02:06;;;;;;;;;9.75;8.00;;;;;23.23;45.87;101476.16;5035571;28;46743;-60
2022/05/17 06:04:31;;;;;;;;;10.00;9.00;;;;;23.25;45.91;101478.69;5035595;28;46053;-61
2022/05/17 06:06:57;;;;;;;;;11.25;9.50;;;;;23.25;45.95;101478.69;5035822;28;45328;-60
2022/05/17 06:09:24;;;;;;;;;12.25;9.75;;;;;23.28;45.88;101483.81;5035860;28;45672;-60
2022/05/17 06:11:50;;;;;;;;;9.00;9.00;;;;;23.27;45.56;101482.94;5035567;28;45633;-60
2022/05/17 06:14:15;;;;;;;;;11.00;9.75;;;;;23.28;45.71;101482.00;5035703;28;45606;-61
2022/05/17 06:16:40;;;;;;;;;11.00;10.00;;;;;23.29;45.85;101480.22;5035664;28;45274;-61
2022/05/17 06:19:06;;;;;;;;;12.00;9.50;;;;;23.30;45.71;101476.66;5035767;28;45356;-61
2022/05/17 06:21:32;;;;;;;;;10.00;10.00;;;;;23.31;45.93;101483.66;5035304;28;46405;-60
2022/05/17 06:23:58;;;;;;;;;9.75;8.25;;;;;23.31;45.59;101487.13;5035383;28;45435;-60
2022/05/17 06:26:23;;;;;;;;;9.75;8.75;;;;;23.33;45.57;101484.38;5035636;28;45366;-60
2022/05/17 06:28:49;;;;;;;;;9.25;8.25;;;;;23.37;45.71;101483.28;5036058;28;45300;-61
2022/05/17 06:31:14;;;;;;;;;11.50;8.50;;;;;23.38;45.47;101479.69;5038907;28;45418;-61
2022/05/17 06:33:39;;;;;;;;;10.25;9.00;;;;;23.41;45.34;101484.81;5038525;28;53505;-61
2022/05/17 06:36:05;;;;;;;;;13.25;9.00;;;;;23.44;45.37;101489.09;5038735;28;45347;-60
2022/05/17 06:38:32;;;;;;;;;8.00;8.00;;;;;23.45;45.27;101481.03;5038876;28;45407;-60
2022/05/17 06:40:58;;;;;;;;;10.25;8.25;;;;;23.49;45.26;101488.81;5038346;28;45702;-60
2022/05/17 06:43:24;;;;;;;;;9.00;7.75;;;;;23.50;45.57;101479.94;5037265;28;45301;-61
2022/05/17 06:45:49;;;;;;;;;14.75;9.00;;;;;23.53;45.41;101471.84;5038831;28;45173;-60
2022/05/17 06:48:15;;;;;;;;;11.75;9.00;;;;;23.54;45.15;101473.50;5039053;28;45300;-60
2022/05/17 06:50:41;;;;;;;;;8.00;8.00;;;;;23.57;45.26;101476.84;5038390;28;46442;-60
2022/05/17 06:53:08;;;;;;;;;8.00;7.00;;;;;23.59;45.25;101471.47;5038456;28;45375;-61
2022/05/17 06:55:33;;;;;;;;;9.75;8.50;;;;;23.61;44.97;101480.16;5038630;28;45252;-60
2022/05/17 06:57:59;;;;;;;;;10.00;8.50;;;;;23.63;44.98;101475.66;5038570;28;45331;-60
2022/05/17 07:00:24;;;;;;;;;7.00;7.00;;;;;23.65;44.77;101475.53;5038301;28;46446;-60
2022/05/17 07:02:50;;;;;;;;;8.50;8.00;;;;;23.67;45.13;101477.16;5038621;28;45473;-64
2022/05/17 07:05:15;;;;;;;;;8.75;6.00;;;;;23.70;45.20;101482.28;5038643;28;45399;-61
2022/05/17 07:07:40;;;;;;;;;8.50;7.25;;;;;23.70;44.86;101478.78;5037204;28;45467;-60
2022/05/17 07:13:13;;;;;;;;;9.75;8.25;;;;;23.75;45.17;101474.06;5038065;28;45789;-60
2022/05/17 07:15:44;;;;;;;;;7.00;7.00;;;;;23.76;45.27;101471.31;5038202;28;45399;-61
2022/05/17 07:18:12;;;;;;;;;8.25;7.00;;;;;23.77;44.63;101472.19;5037020;28;45376;-61
2022/05/17 07:20:38;;;;;;;;;10.00;7.75;;;;;23.79;44.69;101470.28;5037872;28;46970;-61
2022/05/17 07:23:04;;;;;;;;;10.25;8.00;;;;;23.80;45.10;101474.66;5037895;28;45451;-61
2022/05/17 07:25:31;;;;;;;;;8.75;7.00;;;;;23.82;44.50;101471.91;5038097;28;45339;-58
2022/05/17 07:27:56;;;;;;;;;9.00;7.00;;;;;23.83;44.17;101465.66;5020404;28;45398;-62
2022/05/17 07:30:25;;;;;;;;;7.25;5.75;;;;;23.82;44.69;101471.91;5037617;28;45383;-60
2022/05/17 07:32:51;;;;;;;;;8.50;6.25;;;;;23.85;44.89;101477.03;5038129;28;45914;-58
2022/05/17 07:35:17;;;;;;;;;7.50;7.50;;;;;23.82;44.60;101478.03;5038252;28;45397;-59
2022/05/17 07:37:42;;;;;;;;;7.50;7.25;;;;;23.84;44.80;101476.16;5038236;28;45297;-61
2022/05/17 07:40:10;;;;;;;;;8.50;8.00;;;;;23.87;44.50;101477.75;5036857;28;45442;-59
2022/05/17 07:42:40;;;;;;;;;7.50;6.75;;;;;23.88;44.45;101476.81;5036148;28;45301;-60
2022/05/17 07:45:06;;;;;;;;;11.00;8.00;;;;;23.88;44.30;101468.88;5037787;28;45344;-60
2022/05/17 07:47:33;;;;;;;;;7.25;6.00;;;;;23.91;44.41;101477.50;5037810;28;45552;-55
2022/05/17 07:49:58;;;;;;;;;5.50;5.50;;;;;23.91;44.15;101477.50;5037498;28;45440;-57
2022/05/17 07:52:24;;;;;;;;;10.25;6.00;;;;;23.92;44.27;101479.19;5037531;28;45336;-59
2022/05/17 07:54:49;;;;;;;;;8.25;5.25;;;;;23.93;43.82;101472.94;5038030;28;45384;-60
2022/05/17 07:57:14;;;;;;;;;3.00;3.00;;;;;23.93;43.59;101472.94;5037422;28;46237;-60
2022/05/17 07:59:41;;;;;;;;;6.50;5.00;;;;;23.92;43.69;101473.88;5037338;28;45557;-61
2022/05/17 08:02:06;;;;;;;;;7.00;5.25;;;;;23.93;43.67;101475.59;5037329;28;45810;-61
2022/05/17 08:04:32;;;;;;;;;5.00;5.00;;;;;23.95;43.32;101483.50;5037490;28;45427;-60
2022/05/17 08:06:58;;;;;;;;;8.25;5.50;;;;;23.95;42.87;101480.84;5037513;28;45544;-61
2022/05/17 08:09:23;;;;;;;;;6.75;6.75;;;;;23.96;42.99;101479.03;5037223;28;45363;-60
2022/05/17 08:11:50;;;;;;;;;8.25;4.75;;;;;23.96;43.10;101479.91;5037598;28;45383;-60
2022/05/17 08:14:15;;;;;;;;;6.25;5.75;;;;;23.97;42.68;101476.31;5037467;28;45331;-61
2022/05/17 08:16:42;;;;;;;;;5.00;5.00;;;;;23.99;43.29;101478.88;5037551;28;45444;-59
2022/05/17 08:19:08;;;;;;;;;6.00;5.00;;;;;23.98;42.54;101471.88;5037032;28;45629;-60
2022/05/17 08:21:34;;;;;;;;;6.00;6.00;;;;;23.98;42.63;101478.00;5036966;28;45815;-60
2022/05/17 08:23:59;;;;;;;;;5.25;5.00;;;;;23.98;42.79;101474.50;5035859;28;45378;-59
2022/05/17 08:29:10;;;;;;;;;5.00;5.00;;;;;23.97;42.02;101476.31;5036995;28;45741;-61
2022/05/17 08:31:36;;;;;;;;;6.25;5.00;;;;;23.99;42.24;101476.22;5036580;28;45863;-61
2022/05/17 08:34:01;;;;;;;;;5.25;4.00;;;;;24.00;42.14;101475.28;5037010;28;45369;-60
2022/05/17 17:45:21;;;;;;;;;10.75;8.75;;;;;24.95;41.64;101092.00;4997683;28;45740;-51
2022/05/17 17:47:46;;;;;;;;;6.00;6.00;;;;;24.94;41.91;101092.97;5752441;22;622087;-55
2022/05/17 17:50:12;;;;;;;;;8.00;7.25;;;;;24.97;41.51;101100.69;5000533;28;45788;-55
2022/05/17 17:52:38;;;;;;;;;7.75;7.00;;;;;24.93;42.06;101088.63;4998358;28;45829;-56
2022/05/17 17:55:04;;;;;;;;;7.25;6.00;;;;;24.98;41.65;101099.72;4998718;28;46317;-55
2022/05/17 17:57:29;;;;;;;;;7.50;6.75;;;;;24.99;41.62;101095.28;5002267;28;45348;-51
2022/05/17 17:59:55;;;;;;;;;8.50;5.50;;;;;24.98;42.17;101094.44;5002933;28;45341;-56
2022/05/17 18:02:20;;;;;;;;;6.50;6.50;;;;;24.99;41.79;101093.47;5005008;28;45227;-55
2022/05/17 18:04:45;;;;;;;;;6.75;4.25;;;;;24.99;41.62;101098.78;4997347;28;46933;-54
2022/05/17 18:07:11;;;;;;;;;7.25;5.75;;;;;25.01;41.78;101094.22;5002640;28;45213;-55
2022/05/17 18:09:38;;;;;;;;;8.00;7.00;;;;;25.03;42.31;101095.91;5000498;28;45406;-54
2022/05/17 18:12:04;;;;;;;;;10.00;6.75;;;;;25.03;42.18;101096.75;4999637;28;45519;-55
2022/05/17 18:14:30;;;;;;;;;9.00;6.75;;;;;25.04;42.18;101105.56;5007383;28;47144;-49
2022/05/17 18:16:57;;;;;;;;;7.25;6.00;;;;;25.03;41.84;101101.22;5021362;28;45054;-51
2022/05/17 18:19:23;;;;;;;;;6.75;6.25;;;;;25.04;41.52;101089.66;5021815;28;44710;-50
2022/05/17 18:21:48;;;;;;;;;5.50;5.50;;;;;25.05;42.23;101078.94;5022086;28;45363;-51
2022/05/17 18:24:13;;;;;;;;;7.00;7.00;;;;;25.08;42.05;101069.94;5020374;28;46228;-51
2022/05/17 18:26:45;;;;;;;;;9.25;6.75;;;;;25.07;41.66;101073.53;5006990;28;45324;-49
2022/05/17 18:29:20;;;;;;;;;7.25;7.00;;;;;25.07;41.60;101078.84;4998476;28;45363;-46
2022/05/17 18:31:46;;;;;;;;;5.75;5.75;;;;;25.06;42.10;101087.75;5021301;28;44788;-47
2022/05/17 18:34:49;;;;;;;;;9.00;7.50;;;;;25.09;42.02;101092.81;5025365;28;45048;-45
2022/05/17 18:37:02;;;;;;;;;7.00;5.75;;;;;25.09;41.98;101103.44;5011176;28;45783;-46
2022/05/17 18:39:29;;;;;;;;;8.50;7.00;;;;;25.09;41.78;101100.78;5003008;28;45264;-49
2022/05/17 18:41:57;;;;;;;;;7.25;7.25;;;;;25.09;41.96;101106.06;4999096;28;45471;-49
2022/05/17 18:44:24;;;;;;;;;9.25;7.75;;;;;25.10;41.84;101115.72;4997767;28;45468;-51
2022/05/17 18:46:50;;;;;;;;;7.00;7.00;;;;;25.11;41.48;101120.94;4997173;28;45858;-45
2022/05/17 18:49:17;;;;;;;;;6.50;6.25;;;;;25.10;41.31;101115.72;4997026;28;45439;-51
2022/05/17 18:51:42;;;;;;;;;6.25;6.25;;;;;25.12;41.24;101130.59;4997339;28;45308;-51
2022/05/17 18:54:07;;;;;;;;;7.00;7.00;;;;;25.12;41.51;101130.59;4997255;28;45650;-44
2022/05/17 18:56:33;;;;;;;;;8.00;6.00;;;;;25.12;41.73;101135.03;4998091;28;45354;-49
2022/05/17 18:58:59;;;;;;;;;6.00;6.00;;;;;25.12;41.36;101135.03;4998095;28;45416;-51
2022/05/17 19:01:25;;;;;;;;;7.25;7.00;;;;;25.16;41.91;101139.19;4997904;28;45494;-52
2022/05/17 19:03:54;;;;;;;;;7.00;6.50;;;;;25.15;41.99;101143.63;4997737;28;46424;-53
2022/05/17 19:06:23;;;;;;;;;7.00;7.00;;;;;25.14;41.70;101141.09;4998225;28;45169;-54
2022/05/17 19:14:17;;;;;;;;;6.75;6.75;;;;;25.11;42.20;101141.28;4998050;28;45815;-56
2022/05/17 19:16:45;;;;;;;;;8.50;6.00;;;;;25.11;42.20;101141.28;4998109;28;50911;-55
2022/05/17 19:19:11;;;;;;;;;8.25;8.00;;;;;25.10;41.70;101147.56;4999501;28;45350;-55
2022/05/17 19:21:56;;;;;;;;;6.50;6.50;;;;;25.09;41.89;101138.75;5010440;28;45307;-52
2022/05/17 19:24:24;;;;;;;;;8.00;7.50;;;;;25.09;41.84;101152.03;5018526;28;46517;-54
2022/05/17 19:26:53;;;;;;;;;5.50;5.50;;;;;25.08;42.39;101152.97;5020598;28;45132;-49
2022/05/17 19:29:21;;;;;;;;;7.00;7.00;;;;;25.08;41.89;101157.44;5012932;28;45415;-51
2022/05/17 19:31:51;;;;;;;;;6.75;6.50;;;;;25.09;41.96;101156.47;4999534;28;45602;-54
2022/05/17 19:34:24;;;;;;;;;8.50;6.75;;;;;25.08;41.94;101154.78;4999603;28;46204;-52
2022/05/17 19:39:39;;;;;;;;;9.00;7.00;;;;;25.06;42.10;101141.63;4998146;28;45223;-49
2022/05/17 19:42:06;;;;;;;;;7.00;7.00;;;;;25.07;41.95;101153.09;5001733;28;45351;-52
2022/05/17 19:44:32;;;;;;;;;7.75;7.00;;;;;25.07;42.61;101153.09;5000510;28;46170;-51
2022/05/17 19:46:58;;;;;;;;;6.50;6.50;;;;;25.06;42.43;101148.75;5000565;28;45741;-53
2022/05/17 19:49:26;;;;;;;;;6.00;6.00;;;;;25.07;42.54;101153.09;4999504;28;45407;-55
2022/05/17 19:51:52;;;;;;;;;6.00;6.00;;;;;25.06;42.36;101146.09;5001652;28;45414;-54
2022/05/17 19:54:23;;;;;;;;;5.00;5.00;;;;;25.07;42.04;101148.63;4998420;28;46260;-53
2022/05/17 19:56:50;;;;;;;;;7.00;6.00;;;;;25.07;42.61;101159.22;4997400;28;45319;-53
2022/05/17 19:59:15;;;;;;;;;9.00;6.00;;;;;25.04;42.10;101154.13;4999187;28;45322;-53
2022/05/17 20:01:40;;;;;;;;;7.50;7.50;;;;;25.06;42.77;101157.53;5014752;28;45598;-51
2022/05/17 20:04:06;;;;;;;;;6.25;5.25;;;;;25.06;42.60;101157.53;5018083;28;46268;-48
2022/05/17 20:06:33;;;;;;;;;7.00;6.25;;;;;25.06;42.29;101154.06;5013275;28;45363;-52
2022/05/17 20:08:58;;;;;;;;;7.00;6.00;;;;;25.07;42.41;101169.00;5012697;28;45141;-43
2022/05/17 20:11:24;;;;;;;;;7.50;6.75;;;;;25.07;42.33;101153.09;5003616;28;45208;-48
2022/05/17 20:13:50;;;;;;;;;7.00;6.25;;;;;25.07;42.20;101158.41;4996742;28;47328;-55
2022/05/17 20:16:15;;;;;;;;;6.50;6.00;;;;;25.07;42.63;101161.88;4997132;28;45352;-51
2022/05/17 20:18:41;;;;;;;;;6.50;6.50;;;;;25.07;43.06;101172.50;4997007;28;45348;-49
2022/05/17 20:21:07;;;;;;;;;9.00;7.00;;;;;25.07;43.03;101175.16;4997556;28;45586;-54
2022/05/17 20:23:35;;;;;;;;;8.50;7.00;;;;;25.08;42.58;101173.38;5001958;28;46273;-50
2022/05/17 20:26:02;;;;;;;;;6.50;5.00;;;;;25.07;42.56;101159.22;5004421;28;45299;-47
2022/05/17 20:28:28;;;;;;;;;7.00;5.75;;;;;25.04;42.58;101158.59;5006300;28;45301;-55
2022/05/17 20:30:56;;;;;;;;;9.00;8.00;;;;;25.09;43.28;101164.41;5007915;28;45205;-54
2022/05/17 20:33:34;;;;;;;;;9.50;7.50;;;;;25.08;43.09;101168.06;5001415;28;46381;-53
2022/05/17 20:36:01;;;;;;;;;7.00;7.00;;;;;25.08;42.58;101174.19;4996660;28;45667;-53
2022/05/17 20:38:28;;;;;;;;;6.50;6.50;;;;;25.05;43.11;101155.00;4997522;28;45225;-59
2022/05/17 20:40:54;;;;;;;;;9.25;8.25;;;;;25.07;42.61;101167.19;4996729;28;45249;-49
2022/05/17 20:43:24;;;;;;;;;6.50;6.50;;;;;25.08;42.96;101173.38;4996463;28;46197;-52
2022/05/17 20:45:49;;;;;;;;;8.25;7.00;;;;;25.08;42.90;101176.84;4996173;28;45732;-54